createdAt,value
2022-08-19T00:00:25.415Z,93.02
2022-08-19T00:01:30.340Z,93.02
2022-08-19T00:02:26.359Z,93.02
2022-08-19T00:03:25.346Z,93.02
2022-08-19T00:04:25.432Z,93.02
2022-08-19T00:05:25.304Z,93.02
2022-08-19T00:06:25.362Z,92.92
2022-08-19T00:07:25.340Z,92.82
2022-08-19T00:08:25.307Z,92.82
2022-08-19T00:09:25.262Z,92.82
2022-08-19T00:10:25.256Z,92.82
2022-08-19T00:11:25.987Z,92.92
2022-08-19T00:12:25.239Z,93.12
2022-08-19T00:13:25.280Z,93.22
2022-08-19T00:14:25.207Z,93.32
2022-08-19T00:15:25.221Z,93.42
2022-08-19T00:16:26.448Z,93.52
2022-08-19T00:17:25.171Z,93.62
2022-08-19T00:18:25.191Z,93.62
2022-08-19T00:19:25.155Z,93.77
2022-08-19T00:20:25.156Z,93.77
2022-08-19T00:21:25.174Z,93.66
2022-08-19T00:22:25.130Z,93.66
2022-08-19T00:23:25.109Z,93.57
2022-08-19T00:24:25.130Z,93.57
2022-08-19T00:25:30.270Z,93.57
2022-08-19T00:26:26.111Z,93.57
2022-08-19T00:27:26.839Z,93.57
2022-08-19T00:28:25.063Z,93.46
2022-08-19T00:29:25.045Z,93.46
2022-08-19T00:30:25.033Z,93.37
2022-08-19T00:31:25.023Z,93.32
2022-08-19T00:32:25.036Z,93.12
2022-08-19T00:33:25.012Z,93.02
2022-08-19T00:34:25.025Z,92.92
2022-08-19T00:35:24.975Z,92.86
2022-08-19T00:36:24.974Z,92.76
2022-08-19T00:37:24.968Z,92.76
2022-08-19T00:38:35.114Z,92.76
2022-08-19T00:39:25.946Z,92.76
2022-08-19T00:40:24.937Z,92.66
2022-08-19T00:41:24.909Z,92.66
2022-08-19T00:42:24.977Z,92.56
2022-08-19T00:43:24.900Z,92.46
2022-08-19T00:44:26.817Z,92.46
2022-08-19T00:45:24.860Z,92.36
2022-08-19T00:46:24.853Z,92.36
2022-08-19T00:47:24.841Z,92.36
2022-08-19T00:48:24.881Z,92.56
2022-08-19T00:49:24.846Z,92.56
2022-08-19T00:50:24.857Z,92.60
2022-08-19T00:51:24.801Z,92.80
2022-08-19T00:52:24.805Z,92.91
2022-08-19T00:53:24.789Z,92.80
2022-08-19T00:54:31.039Z,92.71
2022-08-19T00:55:25.752Z,92.40
2022-08-19T00:56:24.754Z,92.50
2022-08-19T00:57:24.753Z,92.60
2022-08-19T00:58:24.716Z,92.75
2022-08-19T00:59:56.208Z,92.75
2022-08-19T01:00:25.755Z,92.45
2022-08-19T01:01:24.786Z,92.45
2022-08-19T01:02:24.685Z,92.45
2022-08-19T01:03:24.675Z,92.25
2022-08-19T01:04:24.668Z,92.14
2022-08-19T01:05:24.674Z,91.94
2022-08-19T01:06:24.665Z,91.64
2022-08-19T01:07:24.638Z,91.64
2022-08-19T01:08:24.646Z,91.44
2022-08-19T01:09:24.601Z,91.34
2022-08-19T01:10:24.617Z,91.34
2022-08-19T01:11:24.653Z,91.24
2022-08-19T01:12:24.568Z,91.38
2022-08-19T01:13:24.612Z,91.49
2022-08-19T01:14:24.582Z,91.69
2022-08-19T01:15:24.552Z,91.89
2022-08-19T01:16:24.531Z,91.99
2022-08-19T01:17:24.559Z,92.09
2022-08-19T01:18:24.514Z,91.99
2022-08-19T01:19:24.491Z,91.99
2022-08-19T01:20:24.506Z,91.89
2022-08-19T01:21:24.483Z,91.99
2022-08-19T01:22:30.071Z,92.09
2022-08-19T01:23:25.452Z,92.09
2022-08-19T01:24:24.492Z,91.99
2022-08-19T01:25:25.113Z,91.99
2022-08-19T01:26:24.438Z,91.99
2022-08-19T01:27:24.420Z,92.09
2022-08-19T01:28:34.158Z,92.19
2022-08-19T01:29:25.420Z,92.29
2022-08-19T01:30:24.396Z,92.33
2022-08-19T01:31:26.831Z,92.43
2022-08-19T01:32:33.713Z,92.54
2022-08-19T01:33:25.402Z,92.54
2022-08-19T01:34:24.363Z,92.54
2022-08-19T01:35:24.364Z,92.63
2022-08-19T01:36:24.330Z,92.63
2022-08-19T01:37:24.952Z,92.74
2022-08-19T01:38:24.322Z,92.83
2022-08-19T01:39:24.298Z,92.94
2022-08-19T01:40:24.280Z,93.04
2022-08-19T01:41:24.262Z,93.24
2022-08-19T01:42:30.166Z,93.34
2022-08-19T01:43:25.260Z,93.38
2022-08-19T01:44:24.259Z,93.49
2022-08-19T01:45:24.265Z,93.54
2022-08-19T01:46:25.133Z,93.65
2022-08-19T01:47:24.185Z,93.65
2022-08-19T01:48:24.188Z,93.44
2022-08-19T01:49:24.166Z,93.24
2022-08-19T01:50:24.188Z,93.24
2022-08-19T01:51:25.103Z,93.24
2022-08-19T01:52:24.140Z,93.14
2022-08-19T01:53:24.134Z,93.04
2022-08-19T01:54:27.535Z,92.94
2022-08-19T01:55:24.107Z,92.83
2022-08-19T01:56:24.096Z,92.94
2022-08-19T01:57:24.085Z,92.94
2022-08-19T01:58:24.081Z,93.04
2022-08-19T01:59:25.044Z,93.14
2022-08-19T02:00:24.048Z,93.14
2022-08-19T02:01:24.096Z,93.24
2022-08-19T02:02:24.021Z,93.34
2022-08-19T02:03:24.021Z,93.24
2022-08-19T02:04:24.028Z,93.24
2022-08-19T02:05:25.000Z,93.14
2022-08-19T02:06:26.998Z,93.14
2022-08-19T02:07:23.979Z,93.14
2022-08-19T02:08:23.990Z,93.29
2022-08-19T02:09:23.954Z,93.38
2022-08-19T02:10:23.966Z,93.59
2022-08-19T02:11:24.078Z,93.69
2022-08-19T02:12:23.906Z,93.89
2022-08-19T02:13:26.386Z,93.89
2022-08-19T02:14:23.892Z,93.89
2022-08-19T02:15:23.890Z,94.09
2022-08-19T02:16:23.894Z,94.24
2022-08-19T02:17:23.863Z,94.34
2022-08-19T02:18:27.819Z,94.34
2022-08-19T02:19:23.833Z,94.44
2022-08-19T02:20:23.851Z,94.64
2022-08-19T02:21:23.811Z,94.74
2022-08-19T02:22:23.804Z,94.84
2022-08-19T02:23:23.807Z,94.94
2022-08-19T02:24:23.914Z,95.04
2022-08-19T02:25:23.809Z,95.04
2022-08-19T02:26:23.761Z,95.04
2022-08-19T02:27:23.762Z,95.04
2022-08-19T02:28:23.752Z,95.04
2022-08-19T02:29:24.704Z,95.14
2022-08-19T02:30:23.764Z,95.25
2022-08-19T02:31:23.698Z,95.25
2022-08-19T02:32:23.697Z,95.25
2022-08-19T02:33:23.693Z,95.14
2022-08-19T02:34:23.717Z,95.04
2022-08-19T02:35:23.678Z,94.84
2022-08-19T02:36:23.704Z,94.74
2022-08-19T02:37:23.646Z,94.94
2022-08-19T02:38:23.636Z,95.14
2022-08-19T02:39:23.612Z,95.14
2022-08-19T02:40:23.603Z,95.14
2022-08-19T02:41:23.771Z,95.04
2022-08-19T02:42:23.616Z,95.04
2022-08-19T02:43:23.566Z,95.04
2022-08-19T02:44:30.900Z,95.14
2022-08-19T02:45:29.757Z,95.14
2022-08-19T02:46:23.579Z,95.25
2022-08-19T02:47:23.531Z,95.25
2022-08-19T02:48:23.508Z,95.35
2022-08-19T02:49:23.509Z,95.25
2022-08-19T02:50:23.488Z,95.14
2022-08-19T02:51:23.488Z,95.14
2022-08-19T02:52:23.540Z,95.14
2022-08-19T02:53:23.473Z,95.14
2022-08-19T02:54:23.456Z,95.14
2022-08-19T02:55:23.451Z,95.35
2022-08-19T02:56:24.415Z,95.45
2022-08-19T02:57:23.436Z,95.45
2022-08-19T02:58:23.405Z,95.55
2022-08-19T02:59:23.407Z,95.55
2022-08-19T03:00:23.383Z,95.65
2022-08-19T03:01:23.464Z,95.65
2022-08-19T03:02:23.381Z,95.75
2022-08-19T03:03:23.404Z,95.65
2022-08-19T03:04:23.372Z,95.55
2022-08-19T03:05:47.136Z,95.45
2022-08-19T03:06:24.339Z,95.35
2022-08-19T03:07:24.296Z,95.10
2022-08-19T03:08:23.306Z,95.00
2022-08-19T03:09:23.287Z,94.90
2022-08-19T03:10:23.296Z,94.70
2022-08-19T03:11:23.305Z,94.59
2022-08-19T03:12:23.309Z,94.49
2022-08-19T03:13:23.254Z,94.39
2022-08-19T03:14:23.216Z,94.44
2022-08-19T03:15:23.231Z,94.44
2022-08-19T03:16:23.238Z,94.54
2022-08-19T03:17:23.204Z,94.64
2022-08-19T03:18:23.452Z,94.74
2022-08-19T03:19:23.188Z,94.84
2022-08-19T03:20:23.178Z,95.04
2022-08-19T03:21:23.163Z,95.14
2022-08-19T03:22:23.193Z,95.14
2022-08-19T03:23:23.145Z,95.14
2022-08-19T03:24:23.140Z,95.14
2022-08-19T03:25:23.112Z,95.25
2022-08-19T03:26:23.124Z,95.14
2022-08-19T03:27:23.105Z,95.14
2022-08-19T03:28:23.111Z,95.14
2022-08-19T03:29:30.814Z,95.04
2022-08-19T03:30:24.060Z,94.94
2022-08-19T03:31:44.390Z,94.94
2022-08-19T03:32:32.551Z,94.84
2022-08-19T03:33:24.947Z,94.80
2022-08-19T03:34:23.021Z,94.70
2022-08-19T03:35:23.020Z,94.59
2022-08-19T03:36:22.985Z,94.59
2022-08-19T03:37:23.013Z,94.39
2022-08-19T03:38:22.986Z,94.39
2022-08-19T03:39:22.977Z,94.34
2022-08-19T03:40:22.935Z,94.24
2022-08-19T03:41:22.941Z,94.34
2022-08-19T03:42:32.734Z,94.34
2022-08-19T03:43:23.969Z,94.24
2022-08-19T03:44:22.910Z,94.24
2022-08-19T03:45:23.009Z,94.13
2022-08-19T03:46:22.886Z,94.04
2022-08-19T03:47:22.897Z,93.93
2022-08-19T03:48:22.861Z,93.73
2022-08-19T03:49:27.098Z,93.63
2022-08-19T03:50:23.842Z,93.53
2022-08-19T03:51:30.843Z,93.43
2022-08-19T03:52:23.858Z,93.23
2022-08-19T03:53:22.804Z,93.13
2022-08-19T03:54:22.801Z,93.23
2022-08-19T03:55:22.785Z,93.33
2022-08-19T03:56:22.814Z,93.43
2022-08-19T03:57:31.812Z,93.43
2022-08-19T03:58:23.768Z,93.43
2022-08-19T03:59:22.796Z,93.57
2022-08-19T04:00:22.734Z,93.63
2022-08-19T04:01:22.749Z,93.63
2022-08-19T04:02:23.745Z,93.63
2022-08-19T04:03:22.695Z,93.63
2022-08-19T04:04:22.692Z,93.63
2022-08-19T04:05:24.714Z,93.48
2022-08-19T04:06:23.675Z,93.37
2022-08-19T04:07:24.128Z,93.37
2022-08-19T04:08:22.680Z,93.48
2022-08-19T04:09:22.651Z,93.57
2022-08-19T04:10:22.648Z,93.57
2022-08-19T04:11:22.619Z,93.48
2022-08-19T04:12:23.623Z,93.48
2022-08-19T04:13:22.577Z,93.48
2022-08-19T04:14:22.627Z,93.37
2022-08-19T04:15:22.585Z,93.27
2022-08-19T04:16:22.608Z,93.27
2022-08-19T04:17:23.576Z,93.32
2022-08-19T04:18:22.557Z,93.41
2022-08-19T04:19:22.558Z,93.52
2022-08-19T04:20:22.529Z,93.72
2022-08-19T04:21:22.512Z,93.92
2022-08-19T04:22:22.491Z,94.02
2022-08-19T04:23:22.469Z,94.02
2022-08-19T04:24:22.475Z,94.02
2022-08-19T04:25:22.497Z,94.02
2022-08-19T04:26:22.462Z,93.92
2022-08-19T04:27:22.425Z,93.92
2022-08-19T04:28:22.422Z,93.82
2022-08-19T04:29:22.408Z,93.72
2022-08-19T04:30:22.400Z,93.62
2022-08-19T04:31:22.443Z,93.41
2022-08-19T04:32:22.380Z,93.52
2022-08-19T04:33:26.509Z,93.62
2022-08-19T04:34:23.421Z,93.62
2022-08-19T04:35:24.922Z,93.62
2022-08-19T04:36:22.346Z,93.41
2022-08-19T04:37:22.353Z,93.41
2022-08-19T04:38:22.324Z,93.41
2022-08-19T04:39:22.317Z,93.52
2022-08-19T04:40:22.304Z,93.52
2022-08-19T04:41:22.275Z,93.52
2022-08-19T04:42:22.306Z,93.52
2022-08-19T04:43:23.251Z,93.41
2022-08-19T04:44:22.254Z,93.41
2022-08-19T04:45:23.008Z,93.41
2022-08-19T04:46:38.136Z,93.41
2022-08-19T04:47:48.346Z,93.52
2022-08-19T04:48:27.007Z,93.62
2022-08-19T04:49:22.187Z,93.72
2022-08-19T04:50:22.213Z,93.82
2022-08-19T04:51:22.172Z,93.92
2022-08-19T04:52:22.206Z,93.92
2022-08-19T04:53:22.178Z,93.92
2022-08-19T04:54:37.628Z,93.82
2022-08-19T04:55:23.117Z,93.72
2022-08-19T04:56:22.133Z,93.62
2022-08-19T04:57:22.100Z,93.62
2022-08-19T04:58:22.103Z,93.72
2022-08-19T04:59:22.083Z,93.72
2022-08-19T05:00:22.099Z,93.82
2022-08-19T05:01:22.089Z,93.82
2022-08-19T05:02:22.048Z,93.92
2022-08-19T05:03:22.053Z,93.92
2022-08-19T05:04:22.022Z,94.02
2022-08-19T05:05:22.037Z,94.02
2022-08-19T05:06:22.055Z,94.02
2022-08-19T05:07:21.983Z,94.12
2022-08-19T05:08:30.746Z,94.12
2022-08-19T05:09:22.969Z,94.12
2022-08-19T05:10:21.975Z,94.23
2022-08-19T05:11:26.251Z,94.32
2022-08-19T05:12:21.983Z,94.43
2022-08-19T05:13:21.937Z,94.53
2022-08-19T05:14:21.918Z,94.63
2022-08-19T05:15:21.901Z,94.63
2022-08-19T05:16:21.887Z,94.83
2022-08-19T05:17:27.731Z,94.93
2022-08-19T05:18:22.888Z,95.14
2022-08-19T05:19:21.850Z,95.23
2022-08-19T05:20:22.007Z,95.23
2022-08-19T05:21:21.839Z,95.23
2022-08-19T05:22:21.861Z,95.23
2022-08-19T05:23:22.988Z,95.23
2022-08-19T05:24:21.828Z,95.23
2022-08-19T05:25:21.802Z,95.23
2022-08-19T05:26:21.814Z,95.14
2022-08-19T05:27:21.784Z,95.14
2022-08-19T05:28:21.760Z,95.14
2022-08-19T05:29:22.403Z,95.03
2022-08-19T05:30:33.583Z,94.99
2022-08-19T05:31:22.745Z,95.09
2022-08-19T05:32:21.741Z,95.09
2022-08-19T05:33:21.729Z,95.09
2022-08-19T05:34:21.691Z,94.99
2022-08-19T05:35:21.671Z,94.99
2022-08-19T05:36:21.691Z,94.99
2022-08-19T05:37:21.660Z,95.09
2022-08-19T05:38:21.662Z,95.19
2022-08-19T05:39:21.634Z,95.25
2022-08-19T05:40:21.663Z,95.25
2022-08-19T05:41:21.644Z,95.35
2022-08-19T05:42:21.622Z,95.20
2022-08-19T05:43:21.604Z,95.20
2022-08-19T05:44:21.581Z,95.20
2022-08-19T05:45:21.575Z,95.10
2022-08-19T05:46:27.780Z,94.85
2022-08-19T05:47:22.594Z,94.65
2022-08-19T05:48:21.537Z,94.45
2022-08-19T05:49:21.523Z,94.35
2022-08-19T05:50:21.534Z,94.20
2022-08-19T05:51:21.515Z,94.10
2022-08-19T05:52:25.580Z,93.90
2022-08-19T05:53:21.498Z,93.80
2022-08-19T05:54:21.466Z,93.66
2022-08-19T05:55:21.471Z,93.46
2022-08-19T05:56:21.493Z,93.05
2022-08-19T05:57:21.447Z,92.95
2022-08-19T05:58:23.139Z,92.95
2022-08-19T05:59:21.433Z,92.85
2022-08-19T06:00:24.579Z,92.80
2022-08-19T06:01:21.428Z,92.71
2022-08-19T06:02:21.462Z,92.71
2022-08-19T06:03:21.368Z,92.60
2022-08-19T06:04:21.369Z,92.60
2022-08-19T06:05:21.365Z,92.50
2022-08-19T06:06:21.360Z,92.40
2022-08-19T06:07:21.415Z,92.36
2022-08-19T06:08:34.304Z,92.36
2022-08-19T06:09:22.322Z,92.36
2022-08-19T06:10:21.327Z,92.16
2022-08-19T06:11:21.279Z,92.06
2022-08-19T06:12:21.263Z,92.06
2022-08-19T06:13:21.291Z,91.96
2022-08-19T06:14:21.255Z,91.86
2022-08-19T06:15:22.272Z,91.86
2022-08-19T06:16:21.220Z,91.61
2022-08-19T06:17:21.224Z,91.51
2022-08-19T06:18:21.198Z,91.41
2022-08-19T06:19:21.195Z,91.41
2022-08-19T06:20:39.818Z,91.41
2022-08-19T06:21:22.171Z,91.41
2022-08-19T06:22:21.216Z,91.41
2022-08-19T06:23:21.138Z,91.41
2022-08-19T06:24:21.163Z,91.41
2022-08-19T06:25:21.141Z,91.41
2022-08-19T06:26:21.111Z,91.41
2022-08-19T06:27:21.091Z,91.31
2022-08-19T06:28:21.594Z,91.21
2022-08-19T06:29:23.733Z,91.21
2022-08-19T06:30:21.119Z,91.21
2022-08-19T06:31:21.058Z,91.21
2022-08-19T06:32:21.028Z,91.21
2022-08-19T06:33:21.040Z,91.21
2022-08-19T06:34:21.053Z,91.31
2022-08-19T06:35:21.014Z,91.17
2022-08-19T06:36:21.025Z,90.97
2022-08-19T06:37:20.980Z,90.77
2022-08-19T06:38:21.008Z,90.77
2022-08-19T06:39:20.978Z,90.56
2022-08-19T06:40:21.071Z,90.56
2022-08-19T06:41:20.954Z,90.56
2022-08-19T06:42:21.698Z,90.66
2022-08-19T06:43:20.922Z,90.56
2022-08-19T06:44:21.940Z,90.56
2022-08-19T06:45:20.910Z,90.66
2022-08-19T06:46:20.922Z,90.66
2022-08-19T06:47:23.787Z,90.66
2022-08-19T06:48:21.874Z,90.56
2022-08-19T06:49:20.870Z,90.56
2022-08-19T06:50:20.863Z,90.62
2022-08-19T06:51:20.885Z,90.52
2022-08-19T06:52:20.834Z,90.42
2022-08-19T06:53:20.821Z,90.22
2022-08-19T06:54:20.800Z,90.22
2022-08-19T06:55:20.812Z,90.22
2022-08-19T06:56:20.788Z,90.22
2022-08-19T06:57:20.778Z,90.32
2022-08-19T06:58:20.772Z,90.22
2022-08-19T06:59:20.746Z,90.12
2022-08-19T07:00:20.793Z,90.02
2022-08-19T07:01:20.734Z,89.87
2022-08-19T07:02:20.724Z,89.78
2022-08-19T07:03:20.721Z,89.87
2022-08-19T07:04:20.712Z,89.67
2022-08-19T07:05:20.707Z,89.58
2022-08-19T07:06:43.158Z,89.58
2022-08-19T07:07:22.009Z,89.58
2022-08-19T07:08:20.689Z,89.47
2022-08-19T07:09:20.656Z,89.47
2022-08-19T07:10:20.667Z,89.37
2022-08-19T07:11:20.627Z,89.23
2022-08-19T07:12:20.668Z,89.23
2022-08-19T07:13:20.613Z,89.23
2022-08-19T07:14:20.601Z,89.23
2022-08-19T07:15:20.556Z,89.23
2022-08-19T07:16:21.693Z,89.13
2022-08-19T07:17:21.577Z,88.99
2022-08-19T07:18:20.536Z,88.99
2022-08-19T07:19:20.527Z,88.79
2022-08-19T07:20:20.523Z,88.59
2022-08-19T07:21:20.504Z,88.34
2022-08-19T07:22:20.558Z,88.14
2022-08-19T07:23:20.517Z,88.04
2022-08-19T07:24:20.471Z,87.84
2022-08-19T07:25:20.548Z,87.60
2022-08-19T07:26:21.466Z,87.20
2022-08-19T07:27:25.107Z,86.80
2022-08-19T07:28:24.292Z,86.69
2022-08-19T07:29:20.412Z,85.99
2022-08-19T07:30:20.408Z,85.55
2022-08-19T07:31:23.080Z,85.25
2022-08-19T07:32:20.379Z,85.05
2022-08-19T07:33:20.419Z,84.75
2022-08-19T07:34:20.382Z,84.45
2022-08-19T07:35:20.504Z,83.71
2022-08-19T07:36:20.381Z,83.31
2022-08-19T07:37:20.328Z,82.81
2022-08-19T07:38:20.351Z,82.21
2022-08-19T07:39:20.301Z,81.51
2022-08-19T07:40:20.327Z,81.41
2022-08-19T07:41:20.284Z,81.51
2022-08-19T07:42:20.283Z,81.47
2022-08-19T07:43:20.267Z,81.57
2022-08-19T07:44:20.295Z,81.57
2022-08-19T07:45:20.308Z,81.67
2022-08-19T07:46:20.246Z,81.57
2022-08-19T07:47:48.734Z,81.77
2022-08-19T07:48:21.206Z,81.43
2022-08-19T07:49:20.229Z,81.43
2022-08-19T07:50:20.279Z,81.43
2022-08-19T07:51:36.146Z,81.53
2022-08-19T07:52:21.164Z,81.53
2022-08-19T07:53:20.163Z,81.43
2022-08-19T07:54:20.166Z,81.43
2022-08-19T07:55:43.256Z,81.73
2022-08-19T07:56:21.117Z,81.73
2022-08-19T07:57:20.129Z,81.53
2022-08-19T07:58:20.097Z,81.23
2022-08-19T07:59:20.101Z,81.13
2022-08-19T08:00:23.195Z,81.13
2022-08-19T08:01:20.145Z,81.13
2022-08-19T08:02:20.070Z,81.23
2022-08-19T08:03:20.081Z,81.33
2022-08-19T08:04:20.031Z,81.09
2022-08-19T08:05:20.030Z,81.29
2022-08-19T08:06:20.012Z,80.79
2022-08-19T08:07:20.001Z,80.39
2022-08-19T08:08:19.989Z,80.49
2022-08-19T08:10:20.794Z,80.29
2022-08-19T08:11:20.700Z,80.19
2022-08-19T08:12:33.651Z,79.55
2022-08-19T08:13:20.985Z,78.96
2022-08-19T08:14:29.043Z,78.85
2022-08-19T08:15:20.936Z,78.05
2022-08-19T08:16:19.933Z,77.51
2022-08-19T08:17:40.975Z,77.51
2022-08-19T08:18:20.896Z,76.92
2022-08-19T08:19:25.785Z,76.65
2022-08-19T08:20:20.868Z,76.65
2022-08-19T08:21:19.858Z,76.65
2022-08-19T08:22:19.876Z,76.86
2022-08-19T08:23:19.849Z,77.36
2022-08-19T08:24:19.820Z,77.36
2022-08-19T08:25:19.806Z,77.06
2022-08-19T08:26:19.839Z,77.36
2022-08-19T08:27:21.684Z,77.25
2022-08-19T08:28:20.780Z,77.36
2022-08-19T08:29:19.759Z,77.25
2022-08-19T08:30:19.772Z,77.15
2022-08-19T08:31:19.755Z,76.65
2022-08-19T08:32:19.730Z,76.76
2022-08-19T08:33:19.738Z,76.76
2022-08-19T08:34:20.726Z,77.06
2022-08-19T08:35:19.712Z,76.86
2022-08-19T08:36:19.702Z,76.26
2022-08-19T08:37:19.692Z,75.56
2022-08-19T08:38:19.674Z,75.85
2022-08-19T08:39:19.682Z,76.26
2022-08-19T08:40:19.700Z,76.35
2022-08-19T08:41:19.635Z,76.56
2022-08-19T08:42:19.621Z,76.42
2022-08-19T08:43:19.658Z,76.72
2022-08-19T08:44:20.216Z,76.42
2022-08-19T08:45:19.590Z,76.42
2022-08-19T08:46:30.669Z,76.12
2022-08-19T08:47:20.563Z,76.48
2022-08-19T08:48:23.923Z,76.28
2022-08-19T08:49:19.567Z,75.98
2022-08-19T08:50:19.581Z,75.89
2022-08-19T08:51:20.435Z,75.59
2022-08-19T08:52:19.522Z,75.68
2022-08-19T08:53:29.665Z,75.35
2022-08-19T08:54:20.594Z,74.75
2022-08-19T08:55:20.337Z,74.65
2022-08-19T08:56:19.490Z,74.95
2022-08-19T08:57:19.452Z,74.75
2022-08-19T08:58:19.438Z,74.51
2022-08-19T08:59:19.439Z,74.51
2022-08-19T09:00:19.574Z,74.51
2022-08-19T09:01:19.556Z,74.32
2022-08-19T09:02:19.412Z,73.98
2022-08-19T09:03:19.391Z,74.28
2022-08-19T09:04:19.395Z,73.58
2022-08-19T09:05:19.380Z,73.48
2022-08-19T09:06:19.384Z,73.38
2022-08-19T09:07:35.231Z,73.48
2022-08-19T09:08:20.338Z,73.28
2022-08-19T09:09:19.685Z,73.05
2022-08-19T09:10:19.306Z,72.25
2022-08-19T09:11:41.994Z,72.05
2022-08-19T09:12:20.318Z,71.75
2022-08-19T09:13:20.285Z,71.35
2022-08-19T09:14:47.288Z,71.42
2022-08-19T09:15:20.295Z,71.02
2022-08-19T09:16:21.116Z,70.72
2022-08-19T09:17:19.474Z,70.32
2022-08-19T09:18:19.641Z,70.12
2022-08-19T09:19:22.441Z,69.62
2022-08-19T09:20:19.197Z,69.73
2022-08-19T09:21:21.869Z,69.32
2022-08-19T09:22:25.409Z,68.83
2022-08-19T09:23:26.816Z,69.26
2022-08-19T09:24:20.161Z,69.66
2022-08-19T09:25:27.090Z,69.76
2022-08-19T09:26:20.148Z,69.76
2022-08-19T09:27:19.128Z,69.86
2022-08-19T09:28:22.567Z,69.76
2022-08-19T09:29:20.102Z,70.12
2022-08-19T09:30:19.129Z,69.23
2022-08-19T09:31:19.126Z,69.73
2022-08-19T09:32:26.664Z,69.73
2022-08-19T09:33:20.106Z,69.53
2022-08-19T09:34:21.183Z,69.53
2022-08-19T09:35:19.055Z,69.43
2022-08-19T09:36:21.759Z,69.53
2022-08-19T09:37:20.024Z,68.93
2022-08-19T09:38:19.022Z,68.79
2022-08-19T09:39:18.986Z,68.79
2022-08-19T09:40:19.096Z,68.20
2022-08-19T09:41:18.995Z,68.53
2022-08-19T09:42:20.308Z,68.93
2022-08-19T09:43:33.215Z,69.32
2022-08-19T09:44:19.937Z,69.66
2022-08-19T09:45:18.919Z,69.96
2022-08-19T09:46:18.951Z,69.76
2022-08-19T09:47:20.092Z,69.66
2022-08-19T09:48:19.150Z,69.96
2022-08-19T09:49:18.883Z,70.26
2022-08-19T09:50:18.884Z,70.16
2022-08-19T09:51:18.899Z,70.06
2022-08-19T09:52:18.889Z,70.36
2022-08-19T09:53:18.869Z,70.16
2022-08-19T09:54:23.451Z,70.06
2022-08-19T09:55:19.832Z,70.26
2022-08-19T09:56:18.821Z,70.45
2022-08-19T09:57:18.806Z,70.56
2022-08-19T09:58:20.531Z,70.26
2022-08-19T09:59:19.805Z,70.45
2022-08-19T10:00:18.766Z,70.12
2022-08-19T10:01:18.788Z,70.12
2022-08-19T10:02:22.188Z,70.22
2022-08-19T10:03:18.774Z,69.92
2022-08-19T10:04:20.255Z,69.69
2022-08-19T10:05:26.616Z,69.20
2022-08-19T10:06:19.752Z,68.79
2022-08-19T10:07:19.743Z,68.70
2022-08-19T10:08:18.676Z,68.79
2022-08-19T10:09:18.676Z,68.37
2022-08-19T10:10:19.655Z,68.46
2022-08-19T10:11:27.765Z,68.16
2022-08-19T10:12:20.168Z,67.86
2022-08-19T10:13:18.639Z,67.60
2022-08-19T10:14:18.608Z,67.90
2022-08-19T10:15:18.654Z,67.80
2022-08-19T10:16:19.599Z,68.10
2022-08-19T10:17:20.773Z,68.30
2022-08-19T10:18:18.585Z,68.83
2022-08-19T10:19:25.710Z,68.23
2022-08-19T10:20:19.574Z,67.83
2022-08-19T10:21:18.537Z,68.13
2022-08-19T10:22:18.511Z,68.10
2022-08-19T10:23:18.504Z,67.90
2022-08-19T10:24:18.588Z,67.80
2022-08-19T10:25:18.786Z,67.60
2022-08-19T10:26:18.532Z,67.60
2022-08-19T10:27:18.629Z,67.30
2022-08-19T10:28:19.279Z,67.20
2022-08-19T10:29:32.748Z,67.60
2022-08-19T10:30:20.152Z,67.20
2022-08-19T10:31:18.426Z,67.54
2022-08-19T10:32:18.426Z,67.93
2022-08-19T10:33:38.608Z,67.93
2022-08-19T10:34:27.507Z,68.03
2022-08-19T10:35:22.094Z,68.03
2022-08-19T10:36:18.373Z,68.13
2022-08-19T10:37:28.860Z,67.90
2022-08-19T10:38:19.358Z,67.70
2022-08-19T10:39:19.359Z,67.37
2022-08-19T10:40:18.415Z,66.77
2022-08-19T10:41:18.367Z,66.08
2022-08-19T10:42:18.287Z,65.94
2022-08-19T10:43:18.300Z,65.75
2022-08-19T10:44:18.273Z,65.84
2022-08-19T10:45:18.273Z,65.94
2022-08-19T10:46:18.303Z,65.64
2022-08-19T10:47:25.852Z,65.64
2022-08-19T10:48:19.562Z,65.55
2022-08-19T10:49:18.223Z,65.15
2022-08-19T10:50:18.209Z,65.15
2022-08-19T10:51:22.790Z,64.85
2022-08-19T10:52:18.641Z,65.25
2022-08-19T10:53:18.192Z,65.15
2022-08-19T10:54:29.545Z,64.45
2022-08-19T10:55:19.166Z,64.85
2022-08-19T10:56:18.460Z,65.15
2022-08-19T10:57:18.173Z,65.25
2022-08-19T10:58:18.144Z,65.45
2022-08-19T10:59:18.126Z,65.45
2022-08-19T11:00:18.094Z,65.25
2022-08-19T11:01:18.150Z,64.82
2022-08-19T11:02:18.070Z,63.92
2022-08-19T11:03:18.164Z,64.32
2022-08-19T11:04:18.074Z,64.09
2022-08-19T11:05:18.066Z,63.40
2022-08-19T11:06:18.031Z,62.67
2022-08-19T11:07:18.092Z,62.97
2022-08-19T11:08:23.012Z,62.87
2022-08-19T11:09:19.028Z,63.07
2022-08-19T11:10:21.366Z,62.94
2022-08-19T11:11:17.983Z,61.65
2022-08-19T11:12:18.020Z,61.75
2022-08-19T11:13:17.966Z,60.63
2022-08-19T11:14:17.999Z,60.72
2022-08-19T11:15:17.956Z,60.72
2022-08-19T11:16:17.927Z,60.20
2022-08-19T11:17:17.919Z,60.00
2022-08-19T11:18:17.911Z,59.41
2022-08-19T11:19:17.895Z,59.80
2022-08-19T11:20:17.949Z,59.70
2022-08-19T11:21:17.872Z,59.01
2022-08-19T11:22:19.538Z,58.88
2022-08-19T11:23:17.853Z,58.98
2022-08-19T11:24:17.838Z,58.19
2022-08-19T11:25:17.859Z,57.29
2022-08-19T11:26:17.806Z,57.29
2022-08-19T11:27:17.827Z,57.89
2022-08-19T11:28:17.815Z,57.79
2022-08-19T11:29:17.784Z,58.26
2022-08-19T11:30:17.766Z,57.37
2022-08-19T11:31:17.770Z,57.46
2022-08-19T11:32:17.754Z,57.76
2022-08-19T11:33:17.800Z,57.54
2022-08-19T11:34:17.726Z,57.64
2022-08-19T11:35:17.711Z,57.34
2022-08-19T11:36:17.705Z,56.74
2022-08-19T11:37:17.745Z,56.35
2022-08-19T11:38:17.696Z,57.14
2022-08-19T11:39:17.713Z,56.55
2022-08-19T11:40:18.511Z,56.74
2022-08-19T11:41:17.656Z,56.95
2022-08-19T11:42:17.874Z,57.24
2022-08-19T11:43:17.661Z,57.14
2022-08-19T11:44:17.679Z,56.45
2022-08-19T11:45:17.618Z,56.35
2022-08-19T11:46:17.614Z,55.76
2022-08-19T11:47:17.612Z,56.15
2022-08-19T11:48:17.606Z,56.35
2022-08-19T11:49:17.566Z,57.37
2022-08-19T11:50:17.604Z,57.97
2022-08-19T11:51:17.738Z,58.39
2022-08-19T11:52:17.555Z,58.59
2022-08-19T11:53:17.555Z,58.61
2022-08-19T11:54:17.564Z,58.81
2022-08-19T11:55:17.516Z,58.91
2022-08-19T11:56:17.490Z,59.51
2022-08-19T11:57:17.603Z,59.01
2022-08-19T11:58:18.909Z,58.81
2022-08-19T11:59:17.545Z,58.61
2022-08-19T12:00:17.481Z,57.72
2022-08-19T12:01:17.483Z,57.23
2022-08-19T12:02:17.442Z,56.90
2022-08-19T12:03:17.445Z,56.30
2022-08-19T12:04:17.429Z,56.04
2022-08-19T12:05:17.408Z,56.73
2022-08-19T12:06:17.399Z,56.63
2022-08-19T12:07:17.406Z,56.63
2022-08-19T12:08:17.405Z,56.23
2022-08-19T12:09:17.380Z,56.43
2022-08-19T12:10:18.435Z,56.63
2022-08-19T12:11:17.362Z,57.03
2022-08-19T12:12:17.338Z,57.10
2022-08-19T12:13:17.308Z,56.40
2022-08-19T12:14:17.339Z,56.77
2022-08-19T12:15:17.334Z,56.57
2022-08-19T12:16:17.320Z,56.08
2022-08-19T12:17:17.275Z,55.66
2022-08-19T12:18:17.295Z,55.26
2022-08-19T12:19:22.172Z,55.16
2022-08-19T12:20:18.297Z,55.46
2022-08-19T12:21:17.252Z,54.94
2022-08-19T12:22:17.213Z,55.33
2022-08-19T12:23:17.214Z,54.84
2022-08-19T12:24:17.221Z,54.74
2022-08-19T12:25:17.200Z,54.74
2022-08-19T12:26:17.219Z,54.94
2022-08-19T12:27:35.754Z,54.22
2022-08-19T12:28:18.174Z,53.82
2022-08-19T12:29:20.431Z,53.53
2022-08-19T12:30:18.150Z,53.53
2022-08-19T12:31:17.111Z,53.82
2022-08-19T12:32:17.137Z,53.89
2022-08-19T12:33:17.092Z,53.18
2022-08-19T12:34:17.090Z,52.29
2022-08-19T12:35:17.141Z,51.97
2022-08-19T12:36:17.074Z,51.47
2022-08-19T12:37:17.048Z,51.28
2022-08-19T12:38:17.343Z,51.05
2022-08-19T12:39:17.045Z,50.61
2022-08-19T12:40:17.130Z,49.60
2022-08-19T12:41:17.052Z,48.00
2022-08-19T12:42:17.066Z,48.71
2022-08-19T12:43:17.137Z,49.13
2022-08-19T12:44:17.087Z,49.74
2022-08-19T12:45:16.967Z,50.14
2022-08-19T12:46:16.989Z,50.88
2022-08-19T12:47:16.961Z,50.78
2022-08-19T12:48:32.819Z,50.46
2022-08-19T12:49:51.902Z,50.56
2022-08-19T12:50:18.227Z,50.73
2022-08-19T12:51:16.910Z,49.45
2022-08-19T12:52:16.922Z,48.66
2022-08-19T12:53:17.884Z,49.37